Kagoshima Airport
RJFK : now visible

Airfield :











YOU CAN JOIN US ON...

 
LOGIN :

Register | Disclaimer

   EN    FR    IT 

 









Legend :    VFR   Marginal VFR   IFR   Intensive IFR   Very Intensive IFR
Visi :
Ceiling :
>= 8 km
>= 3000ft
5 to 8 km
1000 to 3000 ft
1500m to 5 km
500 to 1000 ft
800 to 1500m
200 to 500 ft
< 800m
< 200 ft
Symbols :   Thunderstorms  Fog  Heavy snow  Heavy precipitations  Wind > 20 kt






- Airport Elevation : 906 ft
- IATA code : KOJ


RJFK - Kagoshima

CURRENT METAR :
  • 161000Z 10007KT 070V130 9999 SCT040 18/14 Q1021 RMK 3CU040 A3016

EXPIRED METARs :
  • 160900Z 11005KT 070V130 9999 FEW040 19/15 Q1020 RMK 2CU040 A3015 VOLCANIC ASH CLOUD S
  • 160800Z 13005KT 9999 FEW030 SCT040 21/15 Q1020

TAF TAF RJFK
Valid from the 16 at 06:00 until the 17 at 12:00 UTC


160517Z 1606/1712 12007KT 9999 FEW030 SCT040
BECMG 1614/1616 35004KT
BECMG 1621/1700 09007KT



MET'MAP, your aeronautical weather chart ! - Copyright ORBIFLY December 2007 - Disclaimer

ORBIFLY MET'MAP TEAM :

Programming & Development : Alexandra Zaïnal
Concept & Development : Baudouin d'Aumeries
Co-Development & Prog : Marc-Olivier Méhu
Technical & hardware support : Manuel Goepfert

Contact : metmap@orbifly.com




SOURCES & CREDITS :

   NOAA       Earth
Advisory